sensor_id;sensor_type;location;lat;lon;timestamp;pressure;altitude;pressure_sealevel;temperature;humidity
45040;BME280;30778;53.574;7.770;2023-03-13T00:03:39;100046.56;;;5.34;59.82
45040;BME280;30778;53.574;7.770;2023-03-13T00:06:05;100044.31;;;5.23;60.11
45040;BME280;30778;53.574;7.770;2023-03-13T00:08:31;100030.84;;;5.40;59.46
45040;BME280;30778;53.574;7.770;2023-03-13T00:10:56;100027.81;;;5.25;60.07
45040;BME280;30778;53.574;7.770;2023-03-13T00:13:22;100025.63;;;4.83;61.04
45040;BME280;30778;53.574;7.770;2023-03-13T00:15:48;100017.38;;;5.55;59.40
45040;BME280;30778;53.574;7.770;2023-03-13T00:18:13;100021.06;;;4.62;62.02
45040;BME280;30778;53.574;7.770;2023-03-13T00:20:39;100005.22;;;5.31;60.05
45040;BME280;30778;53.574;7.770;2023-03-13T00:23:04;100012.69;;;5.13;60.28
45040;BME280;30778;53.574;7.770;2023-03-13T00:25:29;100004.13;;;5.10;60.28
45040;BME280;30778;53.574;7.770;2023-03-13T00:27:55;99992.50;;;5.23;60.06
45040;BME280;30778;53.574;7.770;2023-03-13T00:30:20;100002.84;;;5.51;59.73
45040;BME280;30778;53.574;7.770;2023-03-13T00:32:46;99988.09;;;4.98;61.05
45040;BME280;30778;53.574;7.770;2023-03-13T00:35:13;99984.53;;;5.56;59.22
45040;BME280;30778;53.574;7.770;2023-03-13T00:37:39;99986.00;;;5.38;59.61
45040;BME280;30778;53.574;7.770;2023-03-13T00:40:05;99976.25;;;5.18;60.58
45040;BME280;30778;53.574;7.770;2023-03-13T00:42:32;99977.75;;;5.25;60.29
45040;BME280;30778;53.574;7.770;2023-03-13T00:44:57;99966.53;;;4.98;61.00
45040;BME280;30778;53.574;7.770;2023-03-13T00:47:23;99959.06;;;5.69;58.94
45040;BME280;30778;53.574;7.770;2023-03-13T00:49:49;99946.66;;;5.25;60.21
45040;BME280;30778;53.574;7.770;2023-03-13T00:52:14;99930.41;;;5.21;59.92
45040;BME280;30778;53.574;7.770;2023-03-13T00:54:40;99935.72;;;5.17;60.02
45040;BME280;30778;53.574;7.770;2023-03-13T00:57:06;99927.91;;;5.94;58.10
45040;BME280;30778;53.574;7.770;2023-03-13T00:59:32;99910.41;;;5.75;58.41
45040;BME280;30778;53.574;7.770;2023-03-13T01:01:57;99906.75;;;5.81;58.21
45040;BME280;30778;53.574;7.770;2023-03-13T01:04:22;99902.94;;;5.91;57.87
45040;BME280;30778;53.574;7.770;2023-03-13T01:06:48;99900.38;;;5.90;57.34
45040;BME280;30778;53.574;7.770;2023-03-13T01:09:15;99890.16;;;5.61;58.81
45040;BME280;30778;53.574;7.770;2023-03-13T01:11:42;99895.91;;;5.19;59.77
45040;BME280;30778;53.574;7.770;2023-03-13T01:14:11;99871.75;;;5.44;59.41
45040;BME280;30778;53.574;7.770;2023-03-13T01:16:37;99874.41;;;5.42;59.29
45040;BME280;30778;53.574;7.770;2023-03-13T01:19:05;99860.44;;;5.21;60.36
45040;BME280;30778;53.574;7.770;2023-03-13T01:21:31;99864.28;;;5.10;60.28
45040;BME280;30778;53.574;7.770;2023-03-13T01:23:56;99850.88;;;5.72;58.92
45040;BME280;30778;53.574;7.770;2023-03-13T01:26:23;99845.25;;;5.84;58.05
45040;BME280;30778;53.574;7.770;2023-03-13T01:28:48;99846.94;;;5.62;59.21
45040;BME280;30778;53.574;7.770;2023-03-13T01:31:18;99837.16;;;5.20;60.70
45040;BME280;30778;53.574;7.770;2023-03-13T01:33:45;99827.47;;;5.50;59.42
45040;BME280;30778;53.574;7.770;2023-03-13T01:36:14;99822.53;;;5.67;59.41
45040;BME280;30778;53.574;7.770;2023-03-13T01:38:40;99811.22;;;5.21;60.39
45040;BME280;30778;53.574;7.770;2023-03-13T01:41:07;99808.47;;;5.97;58.26
45040;BME280;30778;53.574;7.770;2023-03-13T01:43:35;99796.50;;;5.71;59.02
45040;BME280;30778;53.574;7.770;2023-03-13T01:46:08;99790.09;;;5.57;59.14
45040;BME280;30778;53.574;7.770;2023-03-13T01:51:43;99782.84;;;5.42;59.85
45040;BME280;30778;53.574;7.770;2023-03-13T01:54:17;99778.00;;;5.56;59.26
45040;BME280;30778;53.574;7.770;2023-03-13T01:59:16;99758.22;;;5.54;59.50
45040;BME280;30778;53.574;7.770;2023-03-13T02:01:45;99748.38;;;5.40;59.90
45040;BME280;30778;53.574;7.770;2023-03-13T02:04:12;99747.72;;;5.35;60.50
45040;BME280;30778;53.574;7.770;2023-03-13T02:06:42;99729.66;;;5.08;60.68
45040;BME280;30778;53.574;7.770;2023-03-13T02:09:17;99735.19;;;5.46;59.73
45040;BME280;30778;53.574;7.770;2023-03-13T02:11:52;99716.91;;;5.25;60.40
45040;BME280;30778;53.574;7.770;2023-03-13T02:14:22;99709.59;;;5.60;59.37
45040;BME280;30778;53.574;7.770;2023-03-13T02:16:51;99707.16;;;5.10;61.23
45040;BME280;30778;53.574;7.770;2023-03-13T02:22:13;99692.44;;;5.34;60.30
45040;BME280;30778;53.574;7.770;2023-03-13T02:25:12;99678.41;;;4.93;61.91
45040;BME280;30778;53.574;7.770;2023-03-13T02:27:42;99686.34;;;5.35;60.72
45040;BME280;30778;53.574;7.770;2023-03-13T02:30:09;99676.28;;;5.04;61.62
45040;BME280;30778;53.574;7.770;2023-03-13T02:32:36;99674.94;;;5.17;61.68
45040;BME280;30778;53.574;7.770;2023-03-13T02:35:10;99668.06;;;4.93;62.17
45040;BME280;30778;53.574;7.770;2023-03-13T02:37:40;99657.06;;;5.10;61.87
45040;BME280;30778;53.574;7.770;2023-03-13T02:40:13;99653.63;;;5.09;62.05
45040;BME280;30778;53.574;7.770;2023-03-13T02:42:43;99646.47;;;5.39;60.53
45040;BME280;30778;53.574;7.770;2023-03-13T02:45:13;99635.34;;;4.90;62.37
45040;BME280;30778;53.574;7.770;2023-03-13T02:47:39;99626.50;;;4.96;62.48
45040;BME280;30778;53.574;7.770;2023-03-13T02:50:05;99619.38;;;5.48;60.47
45040;BME280;30778;53.574;7.770;2023-03-13T02:52:37;99616.69;;;5.28;61.84
45040;BME280;30778;53.574;7.770;2023-03-13T02:55:09;99604.88;;;5.20;62.38
45040;BME280;30778;53.574;7.770;2023-03-13T02:57:37;99605.69;;;4.99;62.72
45040;BME280;30778;53.574;7.770;2023-03-13T03:00:03;99597.50;;;5.10;62.67
45040;BME280;30778;53.574;7.770;2023-03-13T03:02:32;99583.97;;;5.25;62.10
45040;BME280;30778;53.574;7.770;2023-03-13T03:04:57;99572.44;;;5.32;61.59
45040;BME280;30778;53.574;7.770;2023-03-13T03:07:23;99560.66;;;5.47;61.01
45040;BME280;30778;53.574;7.770;2023-03-13T03:09:49;99557.81;;;4.86;63.63
45040;BME280;30778;53.574;7.770;2023-03-13T03:12:17;99548.88;;;5.16;62.71
45040;BME280;30778;53.574;7.770;2023-03-13T03:14:43;99535.22;;;4.91;63.38
45040;BME280;30778;53.574;7.770;2023-03-13T03:17:09;99541.06;;;5.18;63.12
45040;BME280;30778;53.574;7.770;2023-03-13T03:19:34;99543.78;;;5.37;62.33
45040;BME280;30778;53.574;7.770;2023-03-13T03:22:00;99529.69;;;5.44;61.81
45040;BME280;30778;53.574;7.770;2023-03-13T03:24:26;99531.53;;;5.18;63.24
45040;BME280;30778;53.574;7.770;2023-03-13T03:26:51;99521.41;;;5.12;63.41
45040;BME280;30778;53.574;7.770;2023-03-13T03:29:23;99504.34;;;5.08;63.56
45040;BME280;30778;53.574;7.770;2023-03-13T03:31:52;99507.94;;;4.80;64.53
45040;BME280;30778;53.574;7.770;2023-03-13T03:34:18;99493.38;;;5.23;62.67
45040;BME280;30778;53.574;7.770;2023-03-13T03:36:44;99494.84;;;5.51;62.36
45040;BME280;30778;53.574;7.770;2023-03-13T03:39:10;99485.06;;;5.15;63.50
45040;BME280;30778;53.574;7.770;2023-03-13T03:41:35;99467.19;;;4.63;65.15
45040;BME280;30778;53.574;7.770;2023-03-13T03:44:03;99464.72;;;4.82;65.18
45040;BME280;30778;53.574;7.770;2023-03-13T03:46:38;99456.63;;;5.14;64.06
45040;BME280;30778;53.574;7.770;2023-03-13T03:49:04;99443.94;;;4.84;65.04
45040;BME280;30778;53.574;7.770;2023-03-13T03:51:29;99444.41;;;4.72;65.64
45040;BME280;30778;53.574;7.770;2023-03-13T03:53:55;99431.78;;;5.30;64.03
45040;BME280;30778;53.574;7.770;2023-03-13T03:56:21;99437.28;;;5.22;63.88
45040;BME280;30778;53.574;7.770;2023-03-13T03:58:51;99412.34;;;5.20;63.92
45040;BME280;30778;53.574;7.770;2023-03-13T04:01:39;99409.22;;;5.32;62.90
45040;BME280;30778;53.574;7.770;2023-03-13T04:04:05;99386.88;;;5.30;63.82
45040;BME280;30778;53.574;7.770;2023-03-13T04:06:31;99377.25;;;5.33;63.49
45040;BME280;30778;53.574;7.770;2023-03-13T04:08:57;99385.47;;;5.22;63.89
45040;BME280;30778;53.574;7.770;2023-03-13T04:11:25;99381.06;;;5.24;64.53
45040;BME280;30778;53.574;7.770;2023-03-13T04:13:53;99370.94;;;5.39;64.07
45040;BME280;30778;53.574;7.770;2023-03-13T04:16:18;99359.31;;;5.29;64.41
45040;BME280;30778;53.574;7.770;2023-03-13T04:18:45;99351.00;;;5.20;64.69
45040;BME280;30778;53.574;7.770;2023-03-13T04:21:11;99354.63;;;5.16;65.00
45040;BME280;30778;53.574;7.770;2023-03-13T04:23:43;99338.25;;;5.16;65.25
45040;BME280;30778;53.574;7.770;2023-03-13T04:26:10;99350.63;;;5.30;64.89
45040;BME280;30778;53.574;7.770;2023-03-13T04:28:37;99334.81;;;5.36;64.87
45040;BME280;30778;53.574;7.770;2023-03-13T04:31:05;99327.94;;;4.94;66.36
45040;BME280;30778;53.574;7.770;2023-03-13T04:33:46;99328.53;;;5.00;66.38
45040;BME280;30778;53.574;7.770;2023-03-13T04:36:26;99326.47;;;5.29;65.81
45040;BME280;30778;53.574;7.770;2023-03-13T04:39:12;99306.84;;;5.44;65.44
45040;BME280;30778;53.574;7.770;2023-03-13T04:42:10;99315.72;;;5.78;64.62
45040;BME280;30778;53.574;7.770;2023-03-13T04:44:54;99303.34;;;4.61;67.94
45040;BME280;30778;53.574;7.770;2023-03-13T04:47:42;99310.56;;;5.37;65.90
45040;BME280;30778;53.574;7.770;2023-03-13T04:50:27;99283.16;;;4.70;68.10
45040;BME280;30778;53.574;7.770;2023-03-13T04:53:19;99296.88;;;5.14;67.17
45040;BME280;30778;53.574;7.770;2023-03-13T04:55:51;99283.94;;;5.54;65.48
45040;BME280;30778;53.574;7.770;2023-03-13T04:58:32;99273.19;;;5.23;66.99
45040;BME280;30778;53.574;7.770;2023-03-13T05:01:07;99271.47;;;5.81;65.12
45040;BME280;30778;53.574;7.770;2023-03-13T05:03:51;99270.97;;;5.54;66.02
45040;BME280;30778;53.574;7.770;2023-03-13T05:06:36;99260.19;;;5.44;66.81
45040;BME280;30778;53.574;7.770;2023-03-13T05:09:21;99251.75;;;5.59;65.92
45040;BME280;30778;53.574;7.770;2023-03-13T05:12:10;99247.25;;;5.82;65.50
45040;BME280;30778;53.574;7.770;2023-03-13T05:14:55;99245.34;;;5.85;65.66
45040;BME280;30778;53.574;7.770;2023-03-13T05:17:39;99237.88;;;5.21;67.79
45040;BME280;30778;53.574;7.770;2023-03-13T05:20:24;99218.84;;;5.41;66.46
45040;BME280;30778;53.574;7.770;2023-03-13T05:22:58;99217.31;;;5.37;67.48
45040;BME280;30778;53.574;7.770;2023-03-13T05:25:42;99215.09;;;5.48;67.29
45040;BME280;30778;53.574;7.770;2023-03-13T05:28:30;99224.81;;;5.81;66.79
45040;BME280;30778;53.574;7.770;2023-03-13T05:31:15;99209.03;;;5.85;66.73
45040;BME280;30778;53.574;7.770;2023-03-13T05:33:55;99201.13;;;6.25;65.73
45040;BME280;30778;53.574;7.770;2023-03-13T05:36:51;99204.38;;;6.11;65.82
45040;BME280;30778;53.574;7.770;2023-03-13T05:39:36;99200.72;;;5.79;67.20
45040;BME280;30778;53.574;7.770;2023-03-13T05:42:11;99179.13;;;5.97;66.81
45040;BME280;30778;53.574;7.770;2023-03-13T05:44:48;99190.16;;;5.64;68.29
45040;BME280;30778;53.574;7.770;2023-03-13T05:47:46;99188.81;;;6.11;66.74
45040;BME280;30778;53.574;7.770;2023-03-13T05:50:38;99179.13;;;5.78;67.95
45040;BME280;30778;53.574;7.770;2023-03-13T05:53:32;99186.72;;;6.37;66.40
45040;BME280;30778;53.574;7.770;2023-03-13T05:56:14;99178.06;;;6.19;67.12
45040;BME280;30778;53.574;7.770;2023-03-13T05:58:57;99169.38;;;6.20;66.71
45040;BME280;30778;53.574;7.770;2023-03-13T06:01:58;99176.56;;;6.32;66.34
45040;BME280;30778;53.574;7.770;2023-03-13T06:04:30;99169.97;;;6.25;66.75
45040;BME280;30778;53.574;7.770;2023-03-13T06:06:56;99154.41;;;6.25;67.50
45040;BME280;30778;53.574;7.770;2023-03-13T06:09:22;99168.94;;;6.64;65.80
45040;BME280;30778;53.574;7.770;2023-03-13T06:11:48;99155.13;;;6.46;66.70
45040;BME280;30778;53.574;7.770;2023-03-13T06:14:14;99150.31;;;6.56;66.04
45040;BME280;30778;53.574;7.770;2023-03-13T06:16:45;99139.31;;;6.50;66.65
45040;BME280;30778;53.574;7.770;2023-03-13T06:19:17;99151.03;;;6.42;67.47
45040;BME280;30778;53.574;7.770;2023-03-13T06:21:43;99129.22;;;6.28;67.38
45040;BME280;30778;53.574;7.770;2023-03-13T06:24:09;99146.88;;;6.88;65.68
45040;BME280;30778;53.574;7.770;2023-03-13T06:26:34;99147.06;;;6.85;65.80
45040;BME280;30778;53.574;7.770;2023-03-13T06:28:59;99150.50;;;6.35;67.47
45040;BME280;30778;53.574;7.770;2023-03-13T06:31:25;99151.22;;;6.55;67.43
45040;BME280;30778;53.574;7.770;2023-03-13T06:33:54;99144.19;;;6.74;66.84
45040;BME280;30778;53.574;7.770;2023-03-13T06:36:21;99135.13;;;6.99;65.93
45040;BME280;30778;53.574;7.770;2023-03-13T06:38:46;99141.97;;;7.00;65.84
45040;BME280;30778;53.574;7.770;2023-03-13T06:41:12;99144.19;;;6.74;66.99
45040;BME280;30778;53.574;7.770;2023-03-13T06:43:37;99137.94;;;6.94;66.05
45040;BME280;30778;53.574;7.770;2023-03-13T06:46:06;99122.19;;;6.64;66.86
45040;BME280;30778;53.574;7.770;2023-03-13T06:48:32;99125.25;;;7.05;66.06
45040;BME280;30778;53.574;7.770;2023-03-13T06:50:58;99116.75;;;7.02;66.35
45040;BME280;30778;53.574;7.770;2023-03-13T06:53:23;99115.91;;;6.85;66.79
45040;BME280;30778;53.574;7.770;2023-03-13T06:55:49;99125.00;;;7.10;66.51
45040;BME280;30778;53.574;7.770;2023-03-13T06:58:15;99112.66;;;6.98;67.25
45040;BME280;30778;53.574;7.770;2023-03-13T07:00:41;99133.38;;;6.82;67.73
45040;BME280;30778;53.574;7.770;2023-03-13T07:03:09;99108.66;;;7.08;67.11
45040;BME280;30778;53.574;7.770;2023-03-13T07:05:35;99123.09;;;7.29;66.65
45040;BME280;30778;53.574;7.770;2023-03-13T07:08:01;99114.25;;;7.00;67.43
45040;BME280;30778;53.574;7.770;2023-03-13T07:10:26;99096.06;;;6.84;68.05
45040;BME280;30778;53.574;7.770;2023-03-13T07:12:52;99111.50;;;7.19;67.08
45040;BME280;30778;53.574;7.770;2023-03-13T07:15:17;99103.81;;;7.49;66.39
45040;BME280;30778;53.574;7.770;2023-03-13T07:17:43;99104.97;;;7.12;67.65
45040;BME280;30778;53.574;7.770;2023-03-13T07:20:08;99109.34;;;7.43;66.89
45040;BME280;30778;53.574;7.770;2023-03-13T07:22:35;99110.03;;;7.63;65.77
45040;BME280;30778;53.574;7.770;2023-03-13T07:25:02;99111.25;;;7.08;68.48
45040;BME280;30778;53.574;7.770;2023-03-13T07:27:29;99110.75;;;7.33;67.30
45040;BME280;30778;53.574;7.770;2023-03-13T07:29:55;99112.00;;;7.26;68.07
45040;BME280;30778;53.574;7.770;2023-03-13T07:32:21;99105.97;;;7.41;67.31
45040;BME280;30778;53.574;7.770;2023-03-13T07:34:47;99086.19;;;7.39;67.29
45040;BME280;30778;53.574;7.770;2023-03-13T07:37:13;99102.38;;;7.60;66.71
45040;BME280;30778;53.574;7.770;2023-03-13T07:39:40;99095.84;;;7.21;67.98
45040;BME280;30778;53.574;7.770;2023-03-13T07:42:09;99098.09;;;7.74;66.20
45040;BME280;30778;53.574;7.770;2023-03-13T07:44:34;99092.03;;;7.10;68.33
45040;BME280;30778;53.574;7.770;2023-03-13T07:47:00;99094.75;;;7.41;67.48
45040;BME280;30778;53.574;7.770;2023-03-13T07:49:26;99085.09;;;7.43;67.06
45040;BME280;30778;53.574;7.770;2023-03-13T07:51:51;99094.91;;;7.38;67.88
45040;BME280;30778;53.574;7.770;2023-03-13T07:54:16;99096.44;;;7.58;66.53
45040;BME280;30778;53.574;7.770;2023-03-13T07:56:42;99082.59;;;7.25;67.47
45040;BME280;30778;53.574;7.770;2023-03-13T07:59:08;99091.31;;;7.40;66.86
45040;BME280;30778;53.574;7.770;2023-03-13T08:01:34;99091.81;;;7.47;66.89
45040;BME280;30778;53.574;7.770;2023-03-13T08:04:00;99092.25;;;7.55;66.07
45040;BME280;30778;53.574;7.770;2023-03-13T08:06:26;99074.53;;;7.46;66.21
45040;BME280;30778;53.574;7.770;2023-03-13T08:08:52;99092.91;;;7.43;66.05
45040;BME280;30778;53.574;7.770;2023-03-13T08:11:22;99076.13;;;7.64;65.37
45040;BME280;30778;53.574;7.770;2023-03-13T08:13:55;99073.25;;;7.53;65.69
45040;BME280;30778;53.574;7.770;2023-03-13T08:16:23;99071.63;;;8.12;63.85
45040;BME280;30778;53.574;7.770;2023-03-13T08:18:52;99063.03;;;7.50;65.64
45040;BME280;30778;53.574;7.770;2023-03-13T08:21:24;99071.06;;;7.77;65.14
45040;BME280;30778;53.574;7.770;2023-03-13T08:23:55;99076.56;;;7.87;64.88
45040;BME280;30778;53.574;7.770;2023-03-13T08:26:23;99074.22;;;7.82;65.17
45040;BME280;30778;53.574;7.770;2023-03-13T08:28:54;99074.50;;;8.08;64.59
45040;BME280;30778;53.574;7.770;2023-03-13T08:31:22;99069.59;;;7.57;66.46
45040;BME280;30778;53.574;7.770;2023-03-13T08:33:48;99095.84;;;7.68;66.21
45040;BME280;30778;53.574;7.770;2023-03-13T08:36:15;99082.91;;;7.51;66.82
45040;BME280;30778;53.574;7.770;2023-03-13T08:38:42;99082.19;;;7.95;65.31
45040;BME280;30778;53.574;7.770;2023-03-13T08:41:09;99071.59;;;7.68;66.00
45040;BME280;30778;53.574;7.770;2023-03-13T08:43:35;99078.91;;;7.61;66.34
45040;BME280;30778;53.574;7.770;2023-03-13T08:46:00;99081.50;;;8.22;64.30
45040;BME280;30778;53.574;7.770;2023-03-13T08:48:26;99037.56;;;7.41;67.04
45040;BME280;30778;53.574;7.770;2023-03-13T08:51:18;99067.94;;;7.40;66.73
45040;BME280;30778;53.574;7.770;2023-03-13T08:53:45;99087.34;;;7.81;65.63
45040;BME280;30778;53.574;7.770;2023-03-13T08:56:13;99080.81;;;7.42;67.89
45040;BME280;30778;53.574;7.770;2023-03-13T08:58:39;99089.53;;;7.72;66.28
45040;BME280;30778;53.574;7.770;2023-03-13T09:01:12;99099.69;;;7.45;67.30
45040;BME280;30778;53.574;7.770;2023-03-13T09:03:39;99095.69;;;7.71;66.36
45040;BME280;30778;53.574;7.770;2023-03-13T09:06:05;99095.31;;;7.78;66.46
45040;BME280;30778;53.574;7.770;2023-03-13T09:08:31;99065.22;;;7.73;66.15
45040;BME280;30778;53.574;7.770;2023-03-13T09:11:04;99099.16;;;7.86;65.29
45040;BME280;30778;53.574;7.770;2023-03-13T09:13:32;99063.63;;;8.01;64.54
45040;BME280;30778;53.574;7.770;2023-03-13T09:16:03;99058.91;;;8.81;62.98
45040;BME280;30778;53.574;7.770;2023-03-13T09:18:32;99064.97;;;9.23;61.05
45040;BME280;30778;53.574;7.770;2023-03-13T09:21:01;99050.63;;;9.16;60.67
45040;BME280;30778;53.574;7.770;2023-03-13T09:23:27;99045.84;;;8.95;60.30
45040;BME280;30778;53.574;7.770;2023-03-13T09:25:54;99047.44;;;8.84;61.24
45040;BME280;30778;53.574;7.770;2023-03-13T09:28:20;99065.66;;;9.39;59.73
45040;BME280;30778;53.574;7.770;2023-03-13T09:30:46;99083.97;;;8.68;60.79
45040;BME280;30778;53.574;7.770;2023-03-13T09:33:17;99057.75;;;9.00;58.89
45040;BME280;30778;53.574;7.770;2023-03-13T09:35:43;99055.88;;;9.02;59.84
45040;BME280;30778;53.574;7.770;2023-03-13T09:38:18;99081.38;;;9.11;58.89
45040;BME280;30778;53.574;7.770;2023-03-13T09:40:47;99058.84;;;9.10;58.58
45040;BME280;30778;53.574;7.770;2023-03-13T09:43:36;99075.13;;;9.68;55.77
45040;BME280;30778;53.574;7.770;2023-03-13T09:46:10;99059.03;;;10.28;55.34
45040;BME280;30778;53.574;7.770;2023-03-13T09:48:42;99060.66;;;10.80;53.46
45040;BME280;30778;53.574;7.770;2023-03-13T09:51:15;99065.78;;;10.56;53.43
45040;BME280;30778;53.574;7.770;2023-03-13T09:53:57;99063.50;;;10.52;53.16
45040;BME280;30778;53.574;7.770;2023-03-13T09:56:45;99063.34;;;9.89;54.75
45040;BME280;30778;53.574;7.770;2023-03-13T09:59:36;99076.13;;;10.45;53.90
45040;BME280;30778;53.574;7.770;2023-03-13T10:02:28;99066.31;;;10.36;52.91
45040;BME280;30778;53.574;7.770;2023-03-13T10:05:09;99068.06;;;9.97;53.42
45040;BME280;30778;53.574;7.770;2023-03-13T10:07:36;99055.31;;;9.65;53.50
45040;BME280;30778;53.574;7.770;2023-03-13T10:10:03;99077.03;;;9.78;53.77
45040;BME280;30778;53.574;7.770;2023-03-13T10:12:39;99062.38;;;9.63;53.80
45040;BME280;30778;53.574;7.770;2023-03-13T10:15:31;99087.63;;;10.17;52.89
45040;BME280;30778;53.574;7.770;2023-03-13T10:17:59;99079.59;;;9.53;55.37
45040;BME280;30778;53.574;7.770;2023-03-13T10:20:34;99068.75;;;9.32;56.87
45040;BME280;30778;53.574;7.770;2023-03-13T10:25:35;99080.63;;;9.23;56.86
45040;BME280;30778;53.574;7.770;2023-03-13T10:28:03;99084.50;;;9.85;54.48
45040;BME280;30778;53.574;7.770;2023-03-13T10:30:31;99082.00;;;9.56;54.69
45040;BME280;30778;53.574;7.770;2023-03-13T10:33:13;99088.69;;;9.60;55.30
45040;BME280;30778;53.574;7.770;2023-03-13T10:35:42;99070.56;;;9.17;55.22
45040;BME280;30778;53.574;7.770;2023-03-13T10:38:11;99084.59;;;9.29;55.18
45040;BME280;30778;53.574;7.770;2023-03-13T10:40:38;99060.72;;;9.62;53.93
45040;BME280;30778;53.574;7.770;2023-03-13T10:43:25;99056.88;;;10.08;52.95
45040;BME280;30778;53.574;7.770;2023-03-13T10:45:52;99060.84;;;10.00;52.22
45040;BME280;30778;53.574;7.770;2023-03-13T10:48:20;99051.06;;;10.55;50.65
45040;BME280;30778;53.574;7.770;2023-03-13T10:50:49;99057.97;;;11.19;49.46
45040;BME280;30778;53.574;7.770;2023-03-13T10:56:09;99048.16;;;11.10;48.31
45040;BME280;30778;53.574;7.770;2023-03-13T10:58:47;99036.84;;;11.22;47.46
45040;BME280;30778;53.574;7.770;2023-03-13T11:01:25;99039.91;;;11.16;47.76
45040;BME280;30778;53.574;7.770;2023-03-13T11:03:55;99043.75;;;10.86;46.74
45040;BME280;30778;53.574;7.770;2023-03-13T11:06:30;99041.56;;;10.41;47.01
45040;BME280;30778;53.574;7.770;2023-03-13T11:09:01;99034.28;;;11.09;46.65
45040;BME280;30778;53.574;7.770;2023-03-13T11:11:26;99031.47;;;11.23;46.08
45040;BME280;30778;53.574;7.770;2023-03-13T11:14:19;99029.16;;;11.32;46.60
45040;BME280;30778;53.574;7.770;2023-03-13T11:16:48;99022.19;;;10.95;46.83
45040;BME280;30778;53.574;7.770;2023-03-13T11:25:57;99022.56;;;11.26;45.17
45040;BME280;30778;53.574;7.770;2023-03-13T11:35:55;99030.69;;;11.10;45.17
45040;BME280;30778;53.574;7.770;2023-03-13T11:38:29;99038.88;;;11.05;45.04
45040;BME280;30778;53.574;7.770;2023-03-13T11:49:17;99032.22;;;12.20;42.34
45040;BME280;30778;53.574;7.770;2023-03-13T11:55:18;99028.63;;;11.51;43.72
45040;BME280;30778;53.574;7.770;2023-03-13T11:58:16;99028.81;;;11.84;43.12
45040;BME280;30778;53.574;7.770;2023-03-13T12:03:55;99018.66;;;12.26;42.18
45040;BME280;30778;53.574;7.770;2023-03-13T12:06:33;99022.13;;;11.32;43.83
45040;BME280;30778;53.574;7.770;2023-03-13T12:09:26;99005.03;;;11.87;43.26
45040;BME280;30778;53.574;7.770;2023-03-13T12:14:34;98979.72;;;11.75;43.41
45040;BME280;30778;53.574;7.770;2023-03-13T12:17:12;99004.25;;;11.74;43.97
45040;BME280;30778;53.574;7.770;2023-03-13T12:22:42;98980.19;;;11.69;44.32
45040;BME280;30778;53.574;7.770;2023-03-13T12:25:26;98995.00;;;11.22;45.76
45040;BME280;30778;53.574;7.770;2023-03-13T12:28:19;98978.00;;;11.52;45.15
45040;BME280;30778;53.574;7.770;2023-03-13T12:30:55;98970.19;;;12.32;43.90
45040;BME280;30778;53.574;7.770;2023-03-13T12:33:42;98979.84;;;12.43;43.26
45040;BME280;30778;53.574;7.770;2023-03-13T12:36:13;98953.41;;;12.01;43.92
45040;BME280;30778;53.574;7.770;2023-03-13T12:41:43;98981.34;;;11.89;44.46
45040;BME280;30778;53.574;7.770;2023-03-13T12:44:14;98972.56;;;11.31;45.18
45040;BME280;30778;53.574;7.770;2023-03-13T12:52:14;98955.06;;;12.13;44.24
45040;BME280;30778;53.574;7.770;2023-03-13T12:59:52;98965.78;;;12.10;43.88
45040;BME280;30778;53.574;7.770;2023-03-13T13:02:22;98932.44;;;11.78;43.93
45040;BME280;30778;53.574;7.770;2023-03-13T13:04:50;98946.28;;;12.25;42.93
45040;BME280;30778;53.574;7.770;2023-03-13T13:07:24;98946.22;;;11.80;41.84
45040;BME280;30778;53.574;7.770;2023-03-13T13:15:46;98924.56;;;12.57;40.20
45040;BME280;30778;53.574;7.770;2023-03-13T13:18:14;98936.75;;;12.36;40.38
45040;BME280;30778;53.574;7.770;2023-03-13T14:27:21;98879.97;;;13.33;36.51
45040;BME280;30778;53.574;7.770;2023-03-13T14:30:42;98846.88;;;12.67;37.13
45040;BME280;30778;53.574;7.770;2023-03-13T15:44:51;98859.53;;;10.79;38.74
45040;BME280;30778;53.574;7.770;2023-03-13T15:55:35;98858.63;;;10.43;39.65
45040;BME280;30778;53.574;7.770;2023-03-13T16:09:56;98855.81;;;10.09;40.97
45040;BME280;30778;53.574;7.770;2023-03-13T16:12:57;98854.72;;;10.25;40.67
45040;BME280;30778;53.574;7.770;2023-03-13T16:15:35;98873.53;;;9.78;41.53
45040;BME280;30778;53.574;7.770;2023-03-13T16:18:15;98863.34;;;9.75;41.44
45040;BME280;30778;53.574;7.770;2023-03-13T16:21:26;98841.75;;;9.86;41.75
45040;BME280;30778;53.574;7.770;2023-03-13T16:24:19;98845.59;;;9.55;41.90
45040;BME280;30778;53.574;7.770;2023-03-13T16:26:56;98857.47;;;9.33;41.55
45040;BME280;30778;53.574;7.770;2023-03-13T16:29:38;98852.06;;;9.24;42.51
45040;BME280;30778;53.574;7.770;2023-03-13T16:32:09;98813.22;;;9.06;42.58
45040;BME280;30778;53.574;7.770;2023-03-13T16:39:58;98839.66;;;9.40;41.56
45040;BME280;30778;53.574;7.770;2023-03-13T16:47:03;98863.94;;;9.40;41.05
45040;BME280;30778;53.574;7.770;2023-03-13T16:50:57;98843.72;;;9.57;41.42
45040;BME280;30778;53.574;7.770;2023-03-13T17:01:27;98838.69;;;9.15;42.55
45040;BME280;30778;53.574;7.770;2023-03-13T17:03:57;98825.75;;;9.14;42.33
45040;BME280;30778;53.574;7.770;2023-03-13T17:06:35;98839.81;;;8.98;42.72
45040;BME280;30778;53.574;7.770;2023-03-13T17:09:12;98834.50;;;9.13;42.61
45040;BME280;30778;53.574;7.770;2023-03-13T17:11:57;98833.00;;;8.96;43.08
45040;BME280;30778;53.574;7.770;2023-03-13T17:14:23;98832.47;;;8.64;43.82
45040;BME280;30778;53.574;7.770;2023-03-13T17:16:48;98834.09;;;9.32;42.29
45040;BME280;30778;53.574;7.770;2023-03-13T17:19:26;98878.34;;;8.93;42.22
45040;BME280;30778;53.574;7.770;2023-03-13T17:25:16;98831.66;;;8.22;44.22
45040;BME280;30778;53.574;7.770;2023-03-13T17:27:42;98822.06;;;8.64;43.38
45040;BME280;30778;53.574;7.770;2023-03-13T17:33:26;98835.31;;;8.46;43.81
45040;BME280;30778;53.574;7.770;2023-03-13T17:35:51;98827.78;;;8.83;42.82
45040;BME280;30778;53.574;7.770;2023-03-13T17:38:17;98822.50;;;8.43;43.97
45040;BME280;30778;53.574;7.770;2023-03-13T17:40:42;98826.63;;;8.33;43.69
45040;BME280;30778;53.574;7.770;2023-03-13T17:43:11;98825.94;;;8.17;44.29
45040;BME280;30778;53.574;7.770;2023-03-13T17:45:37;98830.78;;;8.63;43.49
45040;BME280;30778;53.574;7.770;2023-03-13T17:48:05;98830.03;;;8.75;43.21